Time;durP1;ratioP1;P1;durP2;ratioP2;P2;SDS_P1;SDS_P2;PMS_P1;PMS_P2;Temp;Humidity;BMP_temperature;BMP_pressure;BME280_temperature;BME280_humidity;BME280_pressure;Samples;Min_cycle;Max_cycle;Signal;HPM_P1;HPM_P2
2023/10/04 00:02:23;;;;;;;18.67;8.70;;;;;;;14.73;59.90;95934.38;5015384;28;20112;-82
2023/10/04 00:04:49;;;;;;;17.42;9.52;;;;;;;14.99;60.05;95983.81;5013270;28;20122;-82
2023/10/04 00:07:14;;;;;;;20.00;9.85;;;;;;;14.97;60.11;95996.66;5017390;28;20048;-82
2023/10/04 00:09:41;;;;;;;17.55;8.43;;;;;;;14.88;60.38;95978.84;5016982;28;20037;-82
2023/10/04 00:12:08;;;;;;;17.02;9.25;;;;;;;14.68;60.03;95940.56;5017369;28;20049;-82
2023/10/04 00:14:33;;;;;;;19.23;8.88;;;;;;;14.81;60.34;95970.34;5017488;28;20037;-82
2023/10/04 00:17:02;;;;;;;20.25;9.55;;;;;;;14.90;60.22;95980.16;5007153;28;20045;-81
2023/10/04 00:19:32;;;;;;;25.27;9.82;;;;;;;14.44;60.77;95939.69;5013304;28;20065;-81
2023/10/04 00:21:57;;;;;;;19.83;10.10;;;;;;;14.73;60.89;95977.09;5015193;28;20124;-82
2023/10/04 00:24:23;;;;;;;23.52;11.38;;;;;;;14.37;61.15;95933.03;5018921;28;20041;-82
2023/10/04 00:26:48;;;;;;;19.77;10.38;;;;;;;14.59;61.16;95974.28;5028173;28;20045;-82
2023/10/04 00:29:14;;;;;;;19.90;9.88;;;;;;;14.30;61.05;95923.50;5012673;28;20124;-83
2023/10/04 00:31:39;;;;;;;21.75;11.02;;;;;;;14.67;60.82;95983.56;5016285;28;20598;-82
2023/10/04 00:34:08;;;;;;;22.15;9.57;;;;;;;14.48;61.27;95964.75;5000659;28;20053;-82
2023/10/04 00:36:34;;;;;;;20.27;10.00;;;;;;;14.51;61.00;95966.06;5034746;28;20128;-82
2023/10/04 00:38:59;;;;;;;24.55;10.32;;;;;;;14.56;60.88;95977.53;5031214;28;20463;-82
2023/10/04 00:41:25;;;;;;;21.25;10.80;;;;;;;14.09;61.36;95927.38;5012704;28;20140;-82
2023/10/04 00:43:51;;;;;;;20.95;10.88;;;;;;;14.21;61.41;95945.69;5034905;28;20045;-82
2023/10/04 00:46:20;;;;;;;21.15;11.10;;;;;;;14.41;61.68;95982.16;5019330;28;20049;-82
2023/10/04 00:48:47;;;;;;;28.13;11.45;;;;;;;14.18;61.42;95932.94;5014357;28;20045;-82
2023/10/04 00:51:13;;;;;;;23.90;11.15;;;;;;;14.39;61.44;95965.63;5020708;28;20041;-82
2023/10/04 00:53:39;;;;;;;30.08;10.45;;;;;;;14.39;61.57;95970.97;5002479;28;20069;-82
2023/10/04 00:56:08;;;;;;;23.10;10.43;;;;;;;14.23;62.13;95976.38;5015184;28;20041;-82
2023/10/04 00:58:35;;;;;;;23.52;11.32;;;;;;;14.11;61.95;95954.56;5014074;28;20049;-82
2023/10/04 01:01:00;;;;;;;28.40;11.15;;;;;;;14.24;61.85;95958.50;5015965;28;20077;-78
2023/10/04 01:03:30;;;;;;;22.58;11.50;;;;;;;14.03;61.88;95941.84;5014725;28;20068;-79
2023/10/04 01:05:57;;;;;;;24.15;11.15;;;;;;;14.34;61.36;95973.66;5014304;28;20135;-78
2023/10/04 01:08:23;;;;;;;22.90;10.90;;;;;;;14.13;61.75;95952.41;5030828;28;20578;-78
2023/10/04 01:10:50;;;;;;;30.60;10.95;;;;;;;14.32;61.88;95975.78;5014227;28;20052;-78
2023/10/04 01:13:21;;;;;;;24.95;11.75;;;;;;;13.78;61.98;95897.44;5000933;28;20052;-78
2023/10/04 01:15:49;;;;;;;29.92;12.18;;;;;;;14.30;61.66;95976.06;5008902;28;20141;-78
2023/10/04 01:18:16;;;;;;;29.98;10.80;;;;;;;14.15;61.77;95966.28;5031022;28;20045;-79
2023/10/04 01:20:42;;;;;;;25.23;11.48;;;;;;;13.95;61.55;95933.63;4999746;28;20417;-78
2023/10/04 01:23:11;;;;;;;25.40;11.02;;;;;;;14.26;61.66;95986.50;5012372;28;20046;-78
2023/10/04 01:25:42;;;;;;;23.80;10.75;;;;;;;14.03;62.00;95946.38;5026913;28;20254;-78
2023/10/04 01:28:17;;;;;;;23.88;11.10;;;;;;;13.75;61.74;95911.31;5032005;28;20049;-78
2023/10/04 01:30:49;;;;;;;22.08;11.30;;;;;;;13.98;61.78;95951.72;5013711;28;20046;-79
2023/10/04 01:33:18;;;;;;;25.60;11.60;;;;;;;14.17;61.97;95966.81;5014027;28;20104;-78
2023/10/04 01:35:49;;;;;;;21.95;11.23;;;;;;;13.64;61.98;95915.13;5013704;28;20586;-78
2023/10/04 01:38:16;;;;;;;26.38;11.20;;;;;;;13.98;62.30;95981.06;5031789;28;20041;-78
2023/10/04 01:40:46;;;;;;;19.50;10.90;;;;;;;13.80;62.15;95935.31;5031650;28;20048;-78
2023/10/04 01:43:17;;;;;;;38.10;12.57;;;;;;;13.94;62.36;95972.03;5013442;28;20146;-78
2023/10/04 01:45:53;;;;;;;28.35;12.45;;;;;;;13.89;62.22;95956.81;5031885;28;20052;-78
2023/10/04 01:48:19;;;;;;;30.67;13.55;;;;;;;13.96;62.65;95980.53;5012696;28;20504;-78
2023/10/04 01:50:48;;;;;;;23.60;10.80;;;;;;;13.53;62.74;95941.00;5012066;28;20046;-78
2023/10/04 01:53:14;;;;;;;24.50;12.48;;;;;;;13.84;62.90;95984.31;5011765;28;20038;-78
2023/10/04 01:55:40;;;;;;;30.02;12.27;;;;;;;13.56;62.84;95939.69;5011498;28;20484;-78
2023/10/04 01:58:06;;;;;;;22.58;11.57;;;;;;;13.63;63.16;95960.69;5011568;28;20049;-78
2023/10/04 02:00:33;;;;;;;31.38;11.90;;;;;;;13.63;62.86;95950.03;5013190;28;20069;-78
2023/10/04 02:03:01;;;;;;;25.23;13.05;;;;;;;13.49;63.11;95952.50;5013408;28;20053;-78
2023/10/04 02:05:28;;;;;;;30.30;11.40;;;;;;;13.39;63.32;95937.34;4993067;28;20504;-79
2023/10/04 02:07:56;;;;;;;25.92;11.32;;;;;;;13.18;63.56;95921.72;4993446;28;20053;-78
2023/10/04 02:10:22;;;;;;;26.90;12.23;;;;;;;13.22;63.72;95941.38;5010696;28;20081;-81
2023/10/04 02:12:50;;;;;;;29.65;13.48;;;;;;;13.09;63.82;95922.22;5017740;28;20045;-78
2023/10/04 02:15:19;;;;;;;26.88;12.25;;;;;;;13.46;63.88;95977.81;4997668;28;20052;-78
2023/10/04 02:17:45;;;;;;;31.80;13.00;;;;;;;13.53;63.55;95980.97;5014395;28;20076;-79
2023/10/04 02:20:25;;;;;;;29.17;11.48;;;;;;;13.35;63.25;95946.16;5016669;28;20053;-79
2023/10/04 02:22:51;;;;;;;29.90;12.50;;;;;;;13.54;63.60;95984.44;5016941;28;20500;-79
2023/10/04 02:25:17;;;;;;;29.88;13.85;;;;;;;13.39;63.35;95945.34;5016836;28;20099;-79
2023/10/04 02:27:49;;;;;;;35.65;14.07;;;;;;;13.52;63.59;95979.38;5016825;28;20103;-78
2023/10/04 02:30:26;;;;;;;33.38;13.45;;;;;;;13.50;63.26;95970.09;5017561;28;20050;-78
2023/10/04 02:32:55;;;;;;;30.80;13.32;;;;;;;13.49;63.32;95971.16;5015715;28;20080;-78
2023/10/04 02:35:29;;;;;;;28.10;12.05;;;;;;;13.36;63.79;95964.50;5016606;28;20135;-79
2023/10/04 02:38:09;;;;;;;32.20;12.43;;;;;;;12.98;64.26;95909.19;5017338;28;20387;-78
2023/10/04 02:40:37;;;;;;;34.00;13.05;;;;;;;12.56;63.89;95851.81;5033131;28;20049;-79
2023/10/04 02:43:03;;;;;;;33.03;12.90;;;;;;;13.22;64.06;95968.81;5016036;28;20025;-78
2023/10/04 02:45:30;;;;;;;27.17;13.45;;;;;;;13.27;64.20;95966.16;5015773;28;20490;-78
2023/10/04 02:47:55;;;;;;;28.13;13.02;;;;;;;13.47;63.57;95986.59;4997817;28;20155;-78
2023/10/04 02:50:25;;;;;;;32.28;13.60;;;;;;;13.45;63.52;95981.53;5016568;28;20049;-79
2023/10/04 02:52:51;;;;;;;35.58;14.20;;;;;;;13.31;63.57;95948.56;4997159;28;20046;-78
2023/10/04 02:55:18;;;;;;;32.22;13.20;;;;;;;13.25;63.59;95931.00;5015335;28;20052;-79
2023/10/04 02:57:53;;;;;;;31.05;12.77;;;;;;;13.37;63.70;95954.66;5015745;28;20038;-79
2023/10/04 03:00:20;;;;;;;39.70;14.15;;;;;;;13.51;63.51;95967.13;5014079;28;20042;-79
2023/10/04 03:02:53;;;;;;;28.63;13.13;;;;;;;13.53;63.62;95978.31;4998061;28;20038;-78
2023/10/04 03:05:19;;;;;;;30.08;13.32;;;;;;;13.40;63.54;95962.13;5014936;28;20041;-79
2023/10/04 03:07:52;;;;;;;28.08;13.25;;;;;;;13.25;63.32;95948.84;4996602;28;20061;-79
2023/10/04 03:10:24;;;;;;;29.27;13.75;;;;;;;13.39;63.82;95974.66;4998815;28;20057;-78
2023/10/04 03:12:56;;;;;;;25.77;13.13;;;;;;;13.38;63.68;95980.22;5033189;28;20040;-78
2023/10/04 03:15:23;;;;;;;38.55;14.40;;;;;;;13.03;64.21;95943.81;5034777;28;20045;-78
2023/10/04 03:17:50;;;;;;;31.17;14.18;;;;;;;13.27;64.12;95984.81;5035116;28;20034;-79
2023/10/04 03:20:20;;;;;;;28.85;13.20;;;;;;;12.78;64.48;95939.34;5018837;28;20037;-78
2023/10/04 03:22:50;;;;;;;38.50;14.70;;;;;;;13.05;65.12;95987.72;5020020;28;20060;-79
2023/10/04 03:25:17;;;;;;;38.22;14.23;;;;;;;13.12;64.74;95979.50;5014248;28;20532;-79
2023/10/04 03:27:44;;;;;;;34.35;14.38;;;;;;;12.94;64.78;95953.41;5018786;28;20061;-78
2023/10/04 03:30:14;;;;;;;48.75;15.20;;;;;;;13.07;64.69;95987.47;4987953;28;20078;-79
2023/10/04 03:32:45;;;;;;;32.95;15.25;;;;;;;13.10;64.53;95976.28;5008213;28;20446;-78
2023/10/04 03:35:14;;;;;;;35.10;14.63;;;;;;;13.02;64.46;95982.16;5018518;28;20044;-78
2023/10/04 03:37:48;;;;;;;35.67;15.35;;;;;;;13.07;64.97;95993.59;5020194;28;20421;-78
2023/10/04 03:40:14;;;;;;;32.22;15.40;;;;;;;13.06;64.70;95972.56;5020498;28;20038;-79
2023/10/04 03:42:41;;;;;;;42.47;15.45;;;;;;;13.14;64.59;95988.81;5018269;28;20060;-78
2023/10/04 03:45:10;;;;;;;31.50;15.10;;;;;;;12.57;65.16;95927.13;5000068;28;20041;-79
2023/10/04 03:47:38;;;;;;;29.90;15.25;;;;;;;12.89;64.98;95980.06;5031861;28;20124;-79
2023/10/04 03:50:06;;;;;;;29.52;14.23;;;;;;;12.74;65.18;95951.56;5023721;28;20474;-78
2023/10/04 03:52:33;;;;;;;33.72;14.80;;;;;;;12.86;64.79;95961.94;5014535;28;20127;-79
2023/10/04 03:54:59;;;;;;;24.42;13.60;;;;;;;12.97;64.78;95980.28;5028375;28;20042;-78
2023/10/04 03:57:24;;;;;;;38.88;14.75;;;;;;;13.04;64.60;95974.72;5023076;28;20120;-78
2023/10/04 03:59:51;;;;;;;29.23;15.60;;;;;;;12.70;64.52;95916.72;4997064;28;20056;-79
2023/10/04 04:02:16;;;;;;;33.38;15.48;;;;;;;13.19;64.35;95995.22;5025373;28;20050;-78
2023/10/04 04:04:42;;;;;;;43.15;15.38;;;;;;;13.16;64.67;95990.41;5000417;28;20048;-78
2023/10/04 04:07:08;;;;;;;42.70;15.23;;;;;;;13.02;64.79;95982.97;5020104;28;20045;-78
2023/10/04 04:09:33;;;;;;;34.70;15.65;;;;;;;12.94;65.00;95970.19;5020988;28;20134;-78
2023/10/04 04:12:00;;;;;;;40.30;14.93;;;;;;;12.97;64.82;95974.97;5000489;28;20358;-79
2023/10/04 04:14:26;;;;;;;37.45;14.70;;;;;;;12.83;65.01;95967.78;5006928;28;20041;-79
2023/10/04 04:16:51;;;;;;;32.60;14.38;;;;;;;12.75;64.86;95955.81;5013105;28;20049;-79
2023/10/04 04:19:19;;;;;;;44.67;15.85;;;;;;;12.68;64.83;95947.31;5015284;28;20116;-79
2023/10/04 04:21:45;;;;;;;38.72;14.40;;;;;;;12.96;64.61;95993.88;5024745;28;20252;-80
2023/10/04 04:24:10;;;;;;;37.58;15.23;;;;;;;12.86;65.16;95967.28;5029723;28;20049;-80
2023/10/04 04:26:36;;;;;;;43.13;15.30;;;;;;;12.98;64.86;95995.19;5006951;28;20072;-80
2023/10/04 04:29:02;;;;;;;34.88;15.90;;;;;;;13.00;64.46;95994.94;4984352;28;20262;-79
2023/10/04 04:31:29;;;;;;;40.38;15.18;;;;;;;12.84;64.84;95964.06;4982842;28;20049;-82
2023/10/04 04:33:55;;;;;;;34.88;14.68;;;;;;;12.60;64.92;95932.69;5002418;28;21287;-82
2023/10/04 04:36:34;;;;;;;37.78;15.95;;;;;;;12.84;65.45;95983.50;4988871;28;20379;-82
2023/10/04 04:39:04;;;;;;;39.97;15.77;;;;;;;12.71;65.34;95968.09;5018911;28;20072;-83
2023/10/04 04:41:29;;;;;;;37.25;16.33;;;;;;;12.35;65.90;95927.41;5012738;28;20056;-83
2023/10/04 04:43:55;;;;;;;29.33;14.00;;;;;;;12.71;65.70;95976.88;5016188;28;20037;-82
2023/10/04 04:46:23;;;;;;;33.40;15.63;;;;;;;12.73;65.46;95980.06;4995031;28;20559;-81
2023/10/04 04:48:49;;;;;;;33.05;15.43;;;;;;;12.69;66.13;95983.50;5003361;28;20085;-80
2023/10/04 04:51:15;;;;;;;40.63;15.77;;;;;;;12.65;65.83;95972.63;5001878;28;20175;-81
2023/10/04 04:53:49;;;;;;;39.42;15.38;;;;;;;12.33;66.05;95932.16;5020327;28;20136;-81
2023/10/04 04:56:17;;;;;;;36.85;14.90;;;;;;;12.40;65.99;95934.56;5014437;28;20061;-81
2023/10/04 04:58:44;;;;;;;40.13;15.77;;;;;;;12.82;65.75;95990.94;5003583;28;20432;-82
2023/10/04 05:01:13;;;;;;;40.40;15.18;;;;;;;12.48;65.41;95931.38;5022468;28;20037;-82
2023/10/04 05:03:45;;;;;;;38.70;17.48;;;;;;;13.01;65.19;95989.34;4996848;28;20673;-82
2023/10/04 05:06:30;;;;;;;41.65;17.38;;;;;;;12.83;65.09;95959.81;4999732;28;20421;-81
2023/10/04 05:08:56;;;;;;;46.25;17.45;;;;;;;13.04;64.80;95983.50;5005320;28;20253;-82
2023/10/04 05:11:25;;;;;;;39.60;16.40;;;;;;;13.21;64.41;96001.84;4990367;28;20041;-84
2023/10/04 05:13:53;;;;;;;48.60;16.92;;;;;;;13.17;63.84;96003.47;4991238;28;20244;-81
2023/10/04 05:16:19;;;;;;;37.80;15.23;;;;;;;13.27;63.49;96005.31;5013061;28;20064;-82
2023/10/04 05:18:44;;;;;;;49.33;15.13;;;;;;;13.15;63.03;96000.28;5000302;28;20053;-84
2023/10/04 05:21:14;;;;;;;31.10;13.70;;;;;;;12.96;62.62;95945.97;4994057;28;20033;-81
2023/10/04 05:23:40;;;;;;;34.58;13.85;;;;;;;13.19;61.68;95982.69;4976006;28;20438;-82
2023/10/04 05:26:06;;;;;;;38.05;14.15;;;;;;;13.09;61.50;95962.19;4966938;28;20524;-82
2023/10/04 05:28:34;;;;;;;36.88;14.27;;;;;;;13.42;61.47;96010.63;4984907;28;20054;-83
2023/10/04 05:31:01;;;;;;;33.10;15.30;;;;;;;13.32;61.10;95990.13;5012953;28;20042;-82
2023/10/04 05:33:26;;;;;;;40.65;15.00;;;;;;;13.12;60.78;95952.84;4998171;28;20124;-82
2023/10/04 05:35:55;;;;;;;38.80;14.82;;;;;;;13.11;60.76;95943.28;5004699;28;20042;-82
2023/10/04 05:38:22;;;;;;;31.83;14.27;;;;;;;13.55;60.92;96010.03;4992608;28;20045;-82
2023/10/04 05:40:48;;;;;;;41.22;15.00;;;;;;;13.33;60.58;95972.28;5000020;28;20038;-80
2023/10/04 05:43:16;;;;;;;46.22;14.40;;;;;;;13.50;60.33;95996.75;5002043;28;20050;-81
2023/10/04 05:45:42;;;;;;;37.25;13.88;;;;;;;13.38;60.22;95972.25;4999590;28;20049;-79
2023/10/04 05:48:12;;;;;;;43.80;15.35;;;;;;;13.71;60.08;96014.25;5006331;28;20046;-79
2023/10/04 05:50:39;;;;;;;35.10;17.05;;;;;;;13.44;60.04;95982.59;5000199;28;20045;-81
2023/10/04 05:53:06;;;;;;;39.35;15.57;;;;;;;13.77;59.89;96023.00;5005100;28;20077;-79
2023/10/04 05:55:32;;;;;;;36.55;15.20;;;;;;;13.80;59.93;96039.28;5003559;28;20077;-79
2023/10/04 05:57:58;;;;;;;41.47;15.27;;;;;;;13.44;60.13;95979.94;4995855;28;20049;-79
2023/10/04 06:00:42;;;;;;;32.65;14.52;;;;;;;13.73;59.82;96021.97;5000312;28;20424;-81
2023/10/04 06:03:11;;;;;;;39.45;15.70;;;;;;;13.36;59.83;95977.84;4998810;28;20049;-80
2023/10/04 06:05:40;;;;;;;41.03;14.00;;;;;;;12.72;59.42;95868.56;4998150;28;20415;-79
2023/10/04 06:08:20;;;;;;;38.55;15.30;;;;;;;13.79;59.66;96042.22;4996699;28;20053;-79
2023/10/04 06:10:55;;;;;;;37.85;15.07;;;;;;;13.87;59.49;96034.44;4996835;28;20050;-81
2023/10/04 06:13:22;;;;;;;34.25;15.23;;;;;;;13.40;59.68;95975.44;4968582;28;20120;-80
2023/10/04 06:15:50;;;;;;;40.05;15.57;;;;;;;13.57;59.74;96005.25;4978996;28;20068;-80
2023/10/04 06:18:16;;;;;;;41.78;15.45;;;;;;;13.81;59.76;96032.84;4995651;28;20158;-80
2023/10/04 06:20:43;;;;;;;46.72;15.52;;;;;;;13.89;59.49;96042.16;5015753;28;20219;-80
2023/10/04 06:23:10;;;;;;;37.25;15.77;;;;;;;13.52;60.05;96037.22;5018620;28;20093;-80
2023/10/04 06:25:47;;;;;;;46.08;16.58;;;;;;;13.67;59.71;96042.50;5006254;28;20561;-80
2023/10/04 06:28:13;;;;;;;34.67;15.38;;;;;;;13.52;59.93;96007.91;4993085;28;20046;-80
2023/10/04 06:30:40;;;;;;;46.25;17.92;;;;;;;13.71;59.84;96048.09;5017920;28;20429;-80
2023/10/04 06:33:07;;;;;;;36.97;16.08;;;;;;;13.23;59.66;95954.44;5001106;28;20102;-80
2023/10/04 06:35:33;;;;;;;48.35;17.73;;;;;;;13.14;59.72;95948.06;4999514;28;20136;-79
2023/10/04 06:38:06;;;;;;;40.55;15.68;;;;;;;13.98;59.40;96045.06;5017739;28;20121;-79
2023/10/04 06:40:32;;;;;;;42.25;16.95;;;;;;;13.74;59.31;95999.56;5008167;28;20057;-79
2023/10/04 06:43:00;;;;;;;51.13;17.27;;;;;;;14.02;58.97;96048.78;5002341;28;20045;-80
2023/10/04 06:45:26;;;;;;;46.53;17.48;;;;;;;13.76;59.50;96005.41;5016824;28;20045;-81
2023/10/04 06:47:57;;;;;;;40.30;17.42;;;;;;;13.62;58.97;95986.56;5018745;28;20052;-79
2023/10/04 06:50:28;;;;;;;48.17;17.35;;;;;;;12.77;59.49;95858.69;4998772;28;20771;-79
2023/10/04 06:52:58;;;;;;;39.92;16.10;;;;;;;14.00;59.58;96048.25;4990196;28;20076;-78
2023/10/04 06:55:25;;;;;;;46.40;18.30;;;;;;;13.97;58.81;96014.13;5004817;28;20483;-79
2023/10/04 06:57:51;;;;;;;38.22;16.98;;;;;;;14.28;58.63;96037.69;5001525;28;20045;-80
2023/10/04 07:00:18;;;;;;;43.22;17.17;;;;;;;14.45;58.39;96058.72;4998252;28;20606;-80
2023/10/04 07:02:47;;;;;;;44.30;17.38;;;;;;;14.49;58.58;96048.31;5015366;28;20801;-80
2023/10/04 07:05:24;;;;;;;37.22;17.33;;;;;;;14.53;58.23;96049.31;5015545;28;20049;-79
2023/10/04 07:07:58;;;;;;;37.47;16.30;;;;;;;14.22;58.48;96022.78;5014175;28;20372;-79
2023/10/04 07:10:27;;;;;;;41.40;17.50;;;;;;;14.16;58.40;96015.09;4993540;28;20049;-80
2023/10/04 07:12:55;;;;;;;36.80;15.48;;;;;;;14.45;58.35;96039.22;5003476;28;20535;-80
2023/10/04 07:15:21;;;;;;;32.05;16.67;;;;;;;14.53;58.22;96052.78;5000748;28;20559;-79
2023/10/04 07:17:48;;;;;;;44.80;17.27;;;;;;;14.59;58.41;96051.69;5009144;28;20152;-80
2023/10/04 07:20:15;;;;;;;38.08;17.45;;;;;;;14.13;57.92;95971.09;4996080;28;20050;-79
2023/10/04 07:22:58;;;;;;;47.25;17.85;;;;;;;14.75;58.12;96044.38;5010425;28;20056;-80
2023/10/04 07:25:28;;;;;;;49.55;18.58;;;;;;;14.68;58.03;96050.03;5010769;28;20777;-80
2023/10/04 07:27:55;;;;;;;37.75;17.33;;;;;;;14.62;57.59;96021.78;5002242;28;20058;-81
2023/10/04 07:30:22;;;;;;;48.80;17.17;;;;;;;14.94;57.47;96042.63;4981953;28;20085;-80
2023/10/04 07:32:48;;;;;;;29.98;15.93;;;;;;;14.64;57.39;95987.59;4995644;28;20088;-78
2023/10/04 07:35:21;;;;;;;38.85;17.60;;;;;;;15.11;56.94;96046.75;4979345;28;20151;-78
2023/10/04 07:37:48;;;;;;;57.55;17.58;;;;;;;14.88;56.96;96002.88;5001427;28;20049;-78
2023/10/04 07:40:16;;;;;;;43.17;15.23;;;;;;;14.97;56.94;96012.69;4995404;28;20078;-78
2023/10/04 07:42:46;;;;;;;39.38;15.68;;;;;;;15.09;56.28;96014.19;5007948;28;20487;-78
2023/10/04 07:45:13;;;;;;;36.65;12.80;;;;;;;15.13;55.35;96005.31;5009384;28;20664;-78
2023/10/04 07:47:42;;;;;;;27.13;11.60;;;;;;;15.35;54.90;96029.69;5012641;28;20064;-78
2023/10/04 07:50:10;;;;;;;37.97;13.98;;;;;;;15.04;54.16;95985.63;4992754;28;20041;-78
2023/10/04 07:52:39;;;;;;;33.33;12.15;;;;;;;15.00;54.29;95961.38;5005005;28;20033;-77
2023/10/04 07:55:12;;;;;;;36.28;13.63;;;;;;;15.47;54.27;96025.84;4995131;28;20044;-78
2023/10/04 07:57:42;;;;;;;50.80;12.95;;;;;;;15.26;54.73;96011.88;5000952;28;20562;-79
2023/10/04 08:00:13;;;;;;;33.08;14.43;;;;;;;15.14;54.51;95990.88;4974856;28;20087;-78
2023/10/04 08:02:45;;;;;;;;;;;;;;;15.50;54.53;96020.72;4993837;28;20045;-80
2023/10/04 08:05:19;;;;;;;24.58;10.65;;;;;;;15.25;54.66;95956.84;5001602;28;19921;-79
2023/10/04 08:07:49;;;;;;;30.50;13.68;;;;;;;15.38;54.81;95990.91;5001744;28;20431;-79
2023/10/04 08:10:23;;;;;;;44.35;14.60;;;;;;;15.45;54.51;95986.03;4996763;28;20187;-79
2023/10/04 08:12:51;;;;;;;28.38;12.55;;;;;;;15.43;54.29;95961.44;4989036;28;20416;-79
2023/10/04 08:15:19;;;;;;;40.50;15.85;;;;;;;15.85;54.36;96011.53;5005763;28;20187;-78
2023/10/04 08:17:48;;;;;;;31.00;13.60;;;;;;;15.96;54.08;96007.63;5022317;28;20033;-78
2023/10/04 08:20:14;;;;;;;32.95;14.68;;;;;;;16.05;53.81;96016.63;5003416;28;20482;-78
2023/10/04 08:22:44;;;;;;;32.70;13.82;;;;;;;16.07;53.54;96019.81;5009882;28;20056;-78
2023/10/04 08:25:17;;;;;;;32.90;14.30;;;;;;;16.17;53.46;96010.88;5017782;28;20029;-79
2023/10/04 08:27:44;;;;;;;32.38;14.15;;;;;;;16.19;53.24;95984.59;5002973;28;20038;-79
2023/10/04 08:30:12;;;;;;;34.55;14.23;;;;;;;16.30;53.56;96004.00;5022572;28;20037;-79
2023/10/04 08:32:40;;;;;;;31.25;13.50;;;;;;;16.24;53.15;95967.69;5022940;28;20047;-81
2023/10/04 08:35:06;;;;;;;44.13;15.02;;;;;;;16.41;52.80;95987.47;4999693;28;20034;-77
2023/10/04 08:37:31;;;;;;;40.42;14.75;;;;;;;16.54;52.63;95999.34;4996545;28;20045;-78
2023/10/04 08:39:58;;;;;;;33.55;13.80;;;;;;;16.62;52.68;95997.94;5013753;28;20432;-78
2023/10/04 08:42:24;;;;;;;31.45;13.23;;;;;;;16.64;52.29;95987.69;5019289;28;20129;-78
2023/10/04 08:44:50;;;;;;;33.30;14.65;;;;;;;16.51;52.45;95965.13;5016502;28;20053;-78
2023/10/04 08:47:16;;;;;;;29.90;13.70;;;;;;;16.07;52.41;95886.03;5023421;28;20038;-79
2023/10/04 08:49:53;;;;;;;41.40;15.13;;;;;;;16.62;52.34;95958.56;5014896;28;20045;-77
2023/10/04 08:52:23;;;;;;;32.83;14.52;;;;;;;16.87;52.23;96001.00;4994173;28;20225;-78
2023/10/04 08:54:58;;;;;;;43.33;14.95;;;;;;;16.87;51.83;95965.38;4996053;28;20068;-78
2023/10/04 08:57:28;;;;;;;28.88;12.88;;;;;;;17.01;51.71;95976.13;5014044;28;20107;-79
2023/10/04 08:59:55;;;;;;;31.38;13.90;;;;;;;17.13;51.92;95987.97;4999494;28;20065;-78
2023/10/04 09:02:22;;;;;;;41.22;14.48;;;;;;;17.17;52.17;95972.06;4998908;28;20037;-79
2023/10/04 09:04:49;;;;;;;31.63;12.52;;;;;;;17.10;51.29;95974.34;4998530;28;20083;-78
2023/10/04 09:07:17;;;;;;;37.53;14.57;;;;;;;17.28;50.88;95993.06;4999741;28;20045;-76
2023/10/04 09:09:46;;;;;;;35.58;14.23;;;;;;;17.44;50.89;95982.06;5005686;28;20703;-78
2023/10/04 09:12:11;;;;;;;30.98;13.30;;;;;;;17.42;51.18;95992.28;5015565;28;20144;-78
2023/10/04 09:14:37;;;;;;;38.05;13.68;;;;;;;17.27;51.10;95945.88;5012214;28;20034;-80
2023/10/04 09:17:14;;;;;;;29.40;13.10;;;;;;;17.25;50.39;95961.47;4969407;28;20078;-78
2023/10/04 09:19:41;;;;;;;36.22;13.15;;;;;;;17.05;50.69;95915.50;4991121;28;20077;-80
2023/10/04 09:22:08;;;;;;;33.90;13.70;;;;;;;17.38;50.24;95954.53;5013334;28;20416;-80
2023/10/04 09:24:54;;;;;;;35.42;13.95;;;;;;;17.65;49.89;95976.03;4991372;28;20068;-79
2023/10/04 09:27:21;;;;;;;29.05;13.15;;;;;;;17.69;49.44;95960.94;4972331;28;20140;-80
2023/10/04 09:29:48;;;;;;;36.47;12.80;;;;;;;17.82;49.76;95980.78;4995404;28;20041;-81
2023/10/04 09:32:14;;;;;;;35.17;14.05;;;;;;;17.80;49.34;95966.06;4964949;28;20041;-77
2023/10/04 09:34:40;;;;;;;31.88;13.60;;;;;;;17.52;49.09;95903.59;5012463;28;20526;-79
2023/10/04 09:37:24;;;;;;;34.45;14.55;;;;;;;17.93;48.87;95957.22;4992088;28;20045;-81
2023/10/04 09:40:04;;;;;;;30.02;13.48;;;;;;;18.05;48.94;95958.28;5007091;28;20041;-81
2023/10/04 09:42:30;;;;;;;29.60;12.82;;;;;;;18.07;49.10;95952.63;5015118;28;20045;-81
2023/10/04 09:45:07;;;;;;;32.72;13.18;;;;;;;18.30;48.39;95961.53;5007576;28;20673;-81
2023/10/04 09:47:39;;;;;;;30.90;13.13;;;;;;;18.40;48.53;95951.31;4994680;28;20590;-81
2023/10/04 09:50:25;;;;;;;32.42;13.13;;;;;;;19.09;47.78;95951.81;4995774;28;20085;-85
2023/10/04 09:52:53;;;;;;;37.90;14.02;;;;;;;19.80;45.15;95920.31;5010270;28;20057;-81
2023/10/04 09:55:22;;;;;;;23.15;11.00;;;;;;;21.05;42.83;95932.03;4995930;28;20066;-80
2023/10/04 09:57:48;;;;;;;34.25;13.52;;;;;;;22.14;39.92;95951.09;5007807;28;20403;-82
2023/10/04 10:00:18;;;;;;;27.80;12.32;;;;;;;23.07;37.60;95964.19;4999649;28;20277;-82
2023/10/04 10:02:51;;;;;;;28.67;12.18;;;;;;;23.75;36.07;95875.19;5013772;28;20041;-82
2023/10/04 10:05:34;;;;;;;34.40;11.90;;;;;;;25.01;34.44;95955.19;5000241;28;20611;-80
2023/10/04 10:08:06;;;;;;;23.02;11.20;;;;;;;25.51;33.43;95915.75;5014136;28;20132;-82
2023/10/04 10:10:37;;;;;;;27.17;11.88;;;;;;;26.52;32.49;95940.25;4964092;28;20042;-81
2023/10/04 10:13:05;;;;;;;34.97;11.25;;;;;;;27.13;31.51;95913.09;4975399;28;20052;-81
2023/10/04 10:15:31;;;;;;;28.98;11.43;;;;;;;27.25;30.37;95914.84;4992048;28;20158;-79
2023/10/04 10:18:04;;;;;;;25.23;10.93;;;;;;;27.92;29.93;95942.44;5001697;28;20072;-79
2023/10/04 10:20:31;;;;;;;29.90;11.52;;;;;;;27.93;29.35;95914.00;5015486;28;20054;-80
2023/10/04 10:23:00;;;;;;;23.00;10.35;;;;;;;28.44;28.63;95927.25;4990190;28;20152;-80
2023/10/04 10:25:32;;;;;;;29.23;10.60;;;;;;;28.79;27.88;95895.72;4985950;28;20053;-79
2023/10/04 10:28:03;;;;;;;40.03;10.45;;;;;;;29.02;27.39;95917.44;5007925;28;20468;-79
2023/10/04 10:30:32;;;;;;;21.02;9.20;;;;;;;28.65;27.38;95914.66;5000139;28;20121;-79
2023/10/04 10:32:59;;;;;;;24.70;9.85;;;;;;;28.70;27.57;95908.84;4993629;28;20041;-79
2023/10/04 10:35:56;;;;;;;22.92;9.85;;;;;;;28.70;27.25;95899.88;4954591;28;20119;-78
2023/10/04 10:38:39;;;;;;;26.15;9.95;;;;;;;28.51;27.18;95897.31;5001518;28;20034;-78
2023/10/04 10:41:06;;;;;;;23.52;9.43;;;;;;;28.82;27.23;95885.25;4995416;28;20025;-78
2023/10/04 10:43:35;;;;;;;17.65;8.85;;;;;;;28.15;27.26;95882.41;4985408;28;20499;-79
2023/10/04 10:46:31;;;;;;;24.27;9.45;;;;;;;28.49;27.05;95869.63;4992174;28;20041;-78
2023/10/04 10:49:00;;;;;;;20.73;9.93;;;;;;;28.41;26.85;95842.25;4977848;28;20306;-79
2023/10/04 10:51:42;;;;;;;18.40;9.45;;;;;;;28.33;26.23;95848.00;5002409;28;20046;-79
2023/10/04 10:54:08;;;;;;;23.63;9.13;;;;;;;28.96;26.30;95874.47;5008698;28;20064;-79
2023/10/04 10:56:37;;;;;;;18.17;8.70;;;;;;;28.94;24.49;95883.03;4996380;28;20521;-79
2023/10/04 10:59:04;;;;;;;21.35;9.65;;;;;;;28.76;25.95;95860.97;5015254;28;20460;-79
2023/10/04 11:01:31;;;;;;;18.70;8.73;;;;;;;29.02;25.31;95862.03;5005790;28;20037;-79
2023/10/04 11:03:58;;;;;;;18.95;8.57;;;;;;;29.46;24.27;95865.59;5004569;28;20072;-79
2023/10/04 11:06:25;;;;;;;20.85;8.25;;;;;;;29.53;24.02;95837.53;4991965;28;20127;-79
2023/10/04 11:08:53;;;;;;;20.33;8.80;;;;;;;29.63;24.27;95861.41;5007786;28;20041;-79
2023/10/04 11:11:20;;;;;;;20.20;9.05;;;;;;;29.65;24.53;95864.56;4984851;28;20795;-79
2023/10/04 11:13:48;;;;;;;21.00;8.40;;;;;;;29.86;24.24;95855.72;4968040;28;20621;-79
2023/10/04 11:16:14;;;;;;;16.90;8.07;;;;;;;30.11;24.01;95856.69;5003901;28;20102;-79
2023/10/04 11:18:39;;;;;;;15.10;7.35;;;;;;;29.76;23.21;95846.28;5006551;28;20056;-80
2023/10/04 11:21:06;;;;;;;17.70;7.82;;;;;;;29.39;23.14;95797.22;4990825;28;20043;-80
2023/10/04 11:23:34;;;;;;;11.88;6.75;;;;;;;29.78;23.18;95843.16;4972807;28;20358;-79
2023/10/04 11:26:00;;;;;;;17.27;7.90;;;;;;;29.82;22.96;95861.19;5009775;28;20041;-79
2023/10/04 11:28:26;;;;;;;17.48;8.15;;;;;;;29.99;23.45;95839.81;4969071;28;20045;-79